createdAt,value
2022-11-20T00:02:51.778Z,100142.41
2022-11-20T00:07:54.315Z,100145.88
2022-11-20T00:12:56.892Z,100133.00
2022-11-20T00:18:00.858Z,100126.72
2022-11-20T00:23:03.405Z,100120.94
2022-11-20T00:28:05.952Z,100127.22
2022-11-20T00:33:09.860Z,100122.00
2022-11-20T00:38:12.397Z,100110.91
2022-11-20T00:43:15.071Z,100105.19
2022-11-20T00:48:18.979Z,100098.53
2022-11-20T00:53:21.781Z,100095.31
2022-11-20T00:58:24.712Z,100078.44
2022-11-20T01:03:28.636Z,100067.34
2022-11-20T01:08:33.395Z,100080.31
2022-11-20T01:13:40.231Z,100074.66
2022-11-20T01:18:46.114Z,100063.16
2022-11-20T01:23:50.457Z,100051.59
2022-11-20T01:28:53.712Z,100050.28
2022-11-20T01:33:59.113Z,100046.41
2022-11-20T01:39:02.124Z,100021.41
2022-11-20T01:44:05.720Z,100013.63
2022-11-20T01:49:13.336Z,100008.75
2022-11-20T01:54:19.490Z,100006.78
2022-11-20T01:59:23.880Z,100004.44
2022-11-20T02:04:28.010Z,99993.72
2022-11-20T02:09:30.675Z,99989.59
2022-11-20T02:14:33.281Z,99980.97
2022-11-20T02:19:37.206Z,99969.00
2022-11-20T02:24:41.433Z,99957.25
2022-11-20T02:29:47.213Z,99951.38
2022-11-20T02:34:50.086Z,99943.06
2022-11-20T02:39:54.144Z,99930.13
2022-11-20T02:44:56.971Z,99892.03
2022-11-20T02:49:59.677Z,99879.16
2022-11-20T02:55:03.711Z,99866.88
2022-11-20T03:00:07.672Z,99856.25
2022-11-20T03:05:10.354Z,99833.13
2022-11-20T03:10:14.366Z,99836.34
2022-11-20T03:15:17.031Z,99815.41
2022-11-20T03:20:19.616Z,99754.66
2022-11-20T03:25:23.617Z,99747.78
2022-11-20T03:30:30.390Z,99720.78
2022-11-20T03:35:33.360Z,99712.53
2022-11-20T03:40:37.460Z,99617.50
2022-11-20T03:45:40.002Z,99595.44
2022-11-20T03:50:42.527Z,99563.97
2022-11-20T03:55:46.410Z,99551.88
2022-11-20T04:00:48.974Z,99535.88
2022-11-20T04:05:51.542Z,99538.97
2022-11-20T04:10:55.425Z,99519.25
2022-11-20T04:15:59.105Z,99435.28
2022-11-20T04:21:02.001Z,99411.91
2022-11-20T04:26:07.281Z,99408.22
2022-11-20T04:31:11.925Z,99397.09
2022-11-20T04:36:16.581Z,99363.88
2022-11-20T04:41:22.390Z,99344.09
2022-11-20T04:46:25.093Z,99318.50
2022-11-20T04:51:28.169Z,99293.72
2022-11-20T04:56:32.066Z,99273.09
2022-11-20T05:01:34.740Z,99265.94
2022-11-20T05:06:37.348Z,99248.97
2022-11-20T05:11:41.201Z,99234.75
2022-11-20T05:16:43.748Z,99223.78
2022-11-20T05:21:46.308Z,99199.81
2022-11-20T05:26:50.173Z,99186.56
2022-11-20T05:31:52.701Z,99163.25
2022-11-20T05:36:55.275Z,99165.50
2022-11-20T05:42:13.117Z,99157.75
2022-11-20T05:47:15.653Z,99117.75
2022-11-20T05:52:18.264Z,99103.53
2022-11-20T05:57:22.192Z,99089.41
2022-11-20T06:02:24.816Z,99086.59
2022-11-20T06:07:27.459Z,99068.69
2022-11-20T06:12:33.401Z,99060.59
2022-11-20T06:17:35.966Z,99039.91
2022-11-20T06:22:38.565Z,99054.34
2022-11-20T06:27:42.465Z,99053.47
2022-11-20T06:32:45.050Z,99054.56
2022-11-20T06:37:47.590Z,99060.38
2022-11-20T06:42:51.512Z,99043.34
2022-11-20T06:47:54.083Z,99039.31
2022-11-20T06:52:56.644Z,99030.38
2022-11-20T06:58:00.561Z,99032.16
2022-11-20T07:03:04.899Z,99023.00
2022-11-20T07:08:07.500Z,99023.88
2022-11-20T07:13:11.383Z,99024.34
2022-11-20T07:18:13.976Z,99034.16
2022-11-20T07:23:16.576Z,99018.09
2022-11-20T07:28:20.666Z,99014.59
2022-11-20T07:33:23.320Z,99015.84
2022-11-20T07:38:25.959Z,99020.63
2022-11-20T07:43:29.914Z,99011.59
2022-11-20T07:48:33.722Z,99000.03
2022-11-20T07:53:36.417Z,98993.66
2022-11-20T07:58:40.417Z,98988.50
2022-11-20T08:03:43.088Z,98978.06
2022-11-20T08:08:45.750Z,98853.09
2022-11-20T08:14:07.103Z,98722.91
2022-11-20T08:19:09.765Z,98668.34
2022-11-20T08:24:12.920Z,98539.72
2022-11-20T08:29:16.985Z,98719.44
2022-11-20T08:34:19.769Z,98743.78
2022-11-20T08:39:22.613Z,98748.94
2022-11-20T08:44:26.717Z,98748.13
2022-11-20T08:49:29.321Z,98737.63
2022-11-20T08:54:31.957Z,98724.19
2022-11-20T09:00:05.537Z,98717.19
2022-11-20T09:04:58.393Z,98705.56
2022-11-20T09:10:22.639Z,98698.75
2022-11-20T09:15:25.164Z,98680.03
2022-11-20T09:20:29.514Z,98679.28
2022-11-20T09:25:32.110Z,98670.13
2022-11-20T09:30:36.000Z,98650.44
2022-11-20T09:35:38.600Z,98652.84
2022-11-20T09:40:45.848Z,98630.66
2022-11-20T09:45:59.118Z,98634.56
2022-11-20T09:51:09.593Z,98618.31
2022-11-20T09:56:16.947Z,98592.38
2022-11-20T10:01:26.318Z,98572.34
2022-11-20T10:06:32.545Z,98542.97
2022-11-20T10:11:42.956Z,98533.91
2022-11-20T10:16:54.978Z,98496.75
2022-11-20T10:22:04.889Z,98475.81
2022-11-20T10:27:20.531Z,98459.88
2022-11-20T10:32:30.428Z,98446.59
2022-11-20T10:37:37.207Z,98421.97
2022-11-20T10:42:44.283Z,98414.53
2022-11-20T10:47:48.239Z,98397.84
2022-11-20T10:52:57.064Z,98384.97
2022-11-20T10:58:07.996Z,98385.53
2022-11-20T11:03:24.672Z,98377.31
2022-11-20T11:08:28.594Z,98353.38
2022-11-20T11:13:32.836Z,98356.63
2022-11-20T11:18:37.086Z,98353.91
2022-11-20T11:23:41.727Z,98338.34
2022-11-20T11:28:55.148Z,98334.44
2022-11-20T11:34:07.584Z,98328.38
2022-11-20T11:39:15.052Z,98316.75
2022-11-20T11:44:36.882Z,98308.69
2022-11-20T11:49:41.259Z,98293.91
2022-11-20T11:54:48.930Z,98281.81
2022-11-20T11:59:59.590Z,98281.16
2022-11-20T12:05:10.828Z,98277.13
2022-11-20T12:10:19.253Z,98272.16
2022-11-20T12:15:31.820Z,98266.06
2022-11-20T12:20:41.826Z,98285.19
2022-11-20T12:25:46.035Z,98294.22
2022-11-20T12:30:57.866Z,98313.72
2022-11-20T12:36:09.675Z,98318.25
2022-11-20T12:41:39.485Z,98314.63
2022-11-20T12:46:47.061Z,98288.22
2022-11-20T12:51:57.281Z,98308.78
2022-11-20T12:57:05.228Z,98348.19
2022-11-20T13:02:18.529Z,98455.25
2022-11-20T13:07:23.599Z,98562.41
2022-11-20T13:12:30.303Z,98678.84
2022-11-20T13:17:36.912Z,98746.38
2022-11-20T13:22:47.573Z,98810.88
2022-11-20T13:27:50.728Z,98842.66
2022-11-20T13:32:55.458Z,98853.50
2022-11-20T13:38:07.654Z,98874.69
2022-11-20T13:43:18.596Z,98880.34
2022-11-20T13:48:23.121Z,98891.56
2022-11-20T13:53:47.705Z,98908.75
2022-11-20T13:58:57.028Z,98917.53
2022-11-20T14:04:06.054Z,98942.19
2022-11-20T14:09:14.910Z,99004.63
2022-11-20T14:14:18.848Z,99074.28
2022-11-20T14:19:28.612Z,99126.38
2022-11-20T14:24:32.658Z,99160.31
2022-11-20T14:29:36.999Z,99183.78
2022-11-20T14:34:42.412Z,99195.31
2022-11-20T14:39:51.696Z,99205.97
2022-11-20T14:44:57.117Z,99224.00
2022-11-20T14:50:02.663Z,99272.53
2022-11-20T14:55:15.932Z,99288.13
2022-11-20T15:00:23.865Z,99305.97
2022-11-20T15:05:28.076Z,99301.34
2022-11-20T15:10:32.163Z,99323.41
2022-11-20T15:15:37.624Z,99320.88
2022-11-20T15:20:40.256Z,99321.63
2022-11-20T15:25:44.575Z,99355.41
2022-11-20T15:30:47.742Z,99362.41
2022-11-20T15:35:50.279Z,99362.22
2022-11-20T15:40:54.292Z,99368.31
2022-11-20T15:46:00.463Z,99359.09
2022-11-20T15:51:06.270Z,99348.72
2022-11-20T15:56:13.688Z,99350.69
2022-11-20T16:01:18.501Z,99339.72
2022-11-20T16:06:21.214Z,99334.19
2022-11-20T16:11:25.172Z,99334.00
2022-11-20T16:16:31.063Z,99328.03
2022-11-20T16:21:33.801Z,99325.59
2022-11-20T16:26:37.792Z,99323.81
2022-11-20T16:31:40.452Z,99302.81
2022-11-20T16:36:44.490Z,99317.63
2022-11-20T16:41:48.492Z,99313.03
2022-11-20T16:46:51.503Z,99311.97
2022-11-20T16:51:54.095Z,99293.13
2022-11-20T16:56:58.120Z,99279.81
2022-11-20T17:02:00.702Z,99265.19
2022-11-20T17:07:07.902Z,99242.47
2022-11-20T17:12:13.449Z,99238.59
2022-11-20T17:17:16.090Z,99230.56
2022-11-20T17:22:18.772Z,99225.44
2022-11-20T17:27:22.776Z,99203.81
2022-11-20T17:32:25.417Z,99184.09
2022-11-20T17:37:28.408Z,99160.09
2022-11-20T17:42:36.748Z,99114.66
2022-11-20T17:47:39.519Z,99076.69
2022-11-20T17:52:42.343Z,99069.56
2022-11-20T17:57:56.968Z,99040.47
2022-11-20T18:02:59.683Z,98971.06
2022-11-20T18:08:02.344Z,98930.59
2022-11-20T18:13:09.353Z,98882.34
2022-11-20T18:18:12.025Z,98830.41
2022-11-20T18:23:14.913Z,98783.84
2022-11-20T18:28:22.178Z,98730.97
2022-11-20T18:33:28.417Z,98689.25
2022-11-20T18:38:31.323Z,98618.59
2022-11-20T18:43:52.967Z,98567.25
2022-11-20T18:48:55.620Z,98494.88
2022-11-20T18:53:58.374Z,98430.00
2022-11-20T18:59:02.504Z,98353.72
2022-11-20T19:04:07.741Z,98293.13
2022-11-20T19:09:11.880Z,98214.16
2022-11-20T19:14:16.097Z,98149.00
2022-11-20T19:19:18.831Z,98093.50
2022-11-20T19:24:22.503Z,97967.06
2022-11-20T19:29:26.981Z,97911.72
2022-11-20T19:34:29.710Z,97860.91
2022-11-20T19:39:32.255Z,97825.84
2022-11-20T19:44:36.240Z,97768.63
2022-11-20T19:49:41.590Z,97732.81
2022-11-20T19:54:44.131Z,97649.97
2022-11-20T19:59:48.088Z,97625.69
2022-11-20T20:04:51.673Z,97597.84
2022-11-20T20:09:54.222Z,97555.69
2022-11-20T20:14:58.092Z,97528.69
2022-11-20T20:20:00.712Z,97487.94
2022-11-20T20:25:03.459Z,97438.53
2022-11-20T20:30:11.766Z,97402.25
2022-11-20T20:35:14.301Z,97368.53
2022-11-20T20:40:18.842Z,97330.25
2022-11-20T20:45:22.729Z,97292.41
2022-11-20T20:50:25.282Z,97221.50
2022-11-20T20:55:27.948Z,97194.69
2022-11-20T21:00:31.867Z,97129.91
2022-11-20T21:05:34.421Z,97089.34
2022-11-20T21:10:38.046Z,97065.16
2022-11-20T21:15:42.635Z,97044.41
2022-11-20T21:21:02.898Z,97006.53
2022-11-20T21:26:07.364Z,96976.16
2022-11-20T21:31:12.749Z,96949.22
2022-11-20T21:36:16.841Z,96931.22
2022-11-20T21:41:19.512Z,96908.72
2022-11-20T21:46:23.630Z,96890.59
2022-11-20T21:51:27.298Z,96872.38
2022-11-20T21:56:30.574Z,96876.50
2022-11-20T22:01:34.726Z,96806.50
2022-11-20T22:06:37.296Z,96777.09
2022-11-20T22:11:39.946Z,96769.97
2022-11-20T22:16:43.855Z,96757.88
2022-11-20T22:21:46.602Z,96770.66
2022-11-20T22:26:49.493Z,96754.41
2022-11-20T22:31:53.943Z,96754.31
2022-11-20T22:36:56.481Z,96775.59
2022-11-20T22:41:59.050Z,96788.28
2022-11-20T22:47:05.228Z,96765.88
2022-11-20T22:52:11.299Z,96720.91
2022-11-20T22:57:13.843Z,96724.31
2022-11-20T23:02:17.705Z,96736.22
2022-11-20T23:07:20.276Z,96736.16
2022-11-20T23:12:22.821Z,96741.91
2022-11-20T23:17:26.723Z,96705.63
2022-11-20T23:22:29.325Z,96640.56
2022-11-20T23:27:31.892Z,96616.94
2022-11-20T23:32:35.760Z,96579.94
2022-11-20T23:37:38.374Z,96560.75
2022-11-20T23:43:01.167Z,96516.00
2022-11-20T23:48:05.703Z,96507.63
2022-11-20T23:53:08.400Z,96485.16
2022-11-20T23:58:10.958Z,96443.63
